sensor_id;sensor_type;location;lat;lon;timestamp;pressure;altitude;pressure_sealevel;temperature;humidity
72370;BME280;60343;-32.030;115.880;2022-08-23T00:00:09;103672.91;;;12.77;49.11
72370;BME280;60343;-32.030;115.880;2022-08-23T00:02:41;103677.38;;;13.00;49.14
72370;BME280;60343;-32.030;115.880;2022-08-23T00:05:09;103677.59;;;13.32;48.23
72370;BME280;60343;-32.030;115.880;2022-08-23T00:07:39;103678.72;;;13.74;47.12
72370;BME280;60343;-32.030;115.880;2022-08-23T00:10:08;103685.66;;;14.10;46.13
72370;BME280;60343;-32.030;115.880;2022-08-23T00:12:42;103685.63;;;14.21;45.09
72370;BME280;60343;-32.030;115.880;2022-08-23T00:15:14;103679.00;;;14.47;44.57
72370;BME280;60343;-32.030;115.880;2022-08-23T00:17:42;103679.88;;;14.69;44.44
72370;BME280;60343;-32.030;115.880;2022-08-23T00:20:17;103683.72;;;14.87;43.42
72370;BME280;60343;-32.030;115.880;2022-08-23T00:22:45;103688.84;;;15.11;43.81
72370;BME280;60343;-32.030;115.880;2022-08-23T00:25:13;103683.13;;;15.25;43.34
72370;BME280;60343;-32.030;115.880;2022-08-23T00:27:47;103686.03;;;15.12;43.56
72370;BME280;60343;-32.030;115.880;2022-08-23T00:30:15;103685.31;;;15.10;43.03
72370;BME280;60343;-32.030;115.880;2022-08-23T00:32:43;103682.81;;;15.39;43.48
72370;BME280;60343;-32.030;115.880;2022-08-23T00:35:12;103690.91;;;15.39;42.81
72370;BME280;60343;-32.030;115.880;2022-08-23T00:37:40;103683.78;;;15.59;42.09
72370;BME280;60343;-32.030;115.880;2022-08-23T00:40:11;103690.78;;;15.71;41.40
72370;BME280;60343;-32.030;115.880;2022-08-23T00:42:49;103696.94;;;15.73;42.45
72370;BME280;60343;-32.030;115.880;2022-08-23T00:45:20;103695.81;;;15.85;41.16
72370;BME280;60343;-32.030;115.880;2022-08-23T00:47:50;103692.72;;;15.89;41.50
72370;BME280;60343;-32.030;115.880;2022-08-23T00:50:24;103683.19;;;15.95;40.89
72370;BME280;60343;-32.030;115.880;2022-08-23T00:52:59;103690.41;;;15.85;40.74
72370;BME280;60343;-32.030;115.880;2022-08-23T00:55:29;103682.25;;;16.06;40.58
72370;BME280;60343;-32.030;115.880;2022-08-23T00:58:03;103680.84;;;16.11;40.76
72370;BME280;60343;-32.030;115.880;2022-08-23T01:00:31;103681.47;;;16.44;40.36
72370;BME280;60343;-32.030;115.880;2022-08-23T01:02:59;103675.38;;;16.61;39.60
72370;BME280;60343;-32.030;115.880;2022-08-23T01:05:32;103662.16;;;16.77;39.16
72370;BME280;60343;-32.030;115.880;2022-08-23T01:08:01;103656.44;;;16.70;38.89
72370;BME280;60343;-32.030;115.880;2022-08-23T01:10:38;103655.03;;;16.76;39.38
72370;BME280;60343;-32.030;115.880;2022-08-23T01:13:14;103654.09;;;17.24;37.92
72370;BME280;60343;-32.030;115.880;2022-08-23T01:15:46;103658.00;;;17.48;38.38
72370;BME280;60343;-32.030;115.880;2022-08-23T01:18:17;103654.53;;;17.75;37.39
72370;BME280;60343;-32.030;115.880;2022-08-23T01:20:50;103647.59;;;17.90;36.65
72370;BME280;60343;-32.030;115.880;2022-08-23T01:23:36;103645.88;;;17.89;37.96
72370;BME280;60343;-32.030;115.880;2022-08-23T01:26:08;103634.31;;;17.87;36.54
72370;BME280;60343;-32.030;115.880;2022-08-23T01:28:36;103629.03;;;18.13;36.33
72370;BME280;60343;-32.030;115.880;2022-08-23T01:31:04;103633.34;;;17.88;36.64
72370;BME280;60343;-32.030;115.880;2022-08-23T01:33:32;103627.84;;;17.71;35.83
72370;BME280;60343;-32.030;115.880;2022-08-23T01:36:01;103637.78;;;17.43;36.44
72370;BME280;60343;-32.030;115.880;2022-08-23T01:38:35;103636.38;;;17.39;36.38
72370;BME280;60343;-32.030;115.880;2022-08-23T01:41:03;103635.00;;;17.15;36.96
72370;BME280;60343;-32.030;115.880;2022-08-23T01:43:31;103631.00;;;17.29;36.41
72370;BME280;60343;-32.030;115.880;2022-08-23T01:46:07;103631.19;;;17.55;36.92
72370;BME280;60343;-32.030;115.880;2022-08-23T01:48:35;103633.50;;;17.50;36.30
72370;BME280;60343;-32.030;115.880;2022-08-23T01:51:03;103631.38;;;17.44;36.32
72370;BME280;60343;-32.030;115.880;2022-08-23T01:53:37;103624.50;;;17.59;36.37
72370;BME280;60343;-32.030;115.880;2022-08-23T01:56:05;103622.16;;;17.91;35.38
72370;BME280;60343;-32.030;115.880;2022-08-23T01:58:33;103604.84;;;17.84;36.00
72370;BME280;60343;-32.030;115.880;2022-08-23T02:01:02;103615.59;;;17.94;35.86
72370;BME280;60343;-32.030;115.880;2022-08-23T02:03:30;103607.66;;;18.28;36.84
72370;BME280;60343;-32.030;115.880;2022-08-23T02:05:58;103597.81;;;18.27;35.72
72370;BME280;60343;-32.030;115.880;2022-08-23T02:08:26;103601.59;;;18.16;33.92
72370;BME280;60343;-32.030;115.880;2022-08-23T02:11:00;103591.06;;;18.31;35.11
72370;BME280;60343;-32.030;115.880;2022-08-23T02:13:35;103600.34;;;18.56;34.10
72370;BME280;60343;-32.030;115.880;2022-08-23T02:16:02;103592.00;;;18.57;33.65
72370;BME280;60343;-32.030;115.880;2022-08-23T02:18:30;103585.72;;;18.57;34.22
72370;BME280;60343;-32.030;115.880;2022-08-23T02:20:58;103578.69;;;18.64;34.93
72370;BME280;60343;-32.030;115.880;2022-08-23T02:23:26;103581.63;;;18.70;34.23
72370;BME280;60343;-32.030;115.880;2022-08-23T02:26:01;103576.19;;;18.70;33.36
72370;BME280;60343;-32.030;115.880;2022-08-23T02:28:28;103570.53;;;18.64;33.58
72370;BME280;60343;-32.030;115.880;2022-08-23T02:30:56;103567.50;;;18.67;32.84
72370;BME280;60343;-32.030;115.880;2022-08-23T02:33:24;103563.63;;;18.95;33.41
72370;BME280;60343;-32.030;115.880;2022-08-23T02:35:52;103568.81;;;18.80;33.11
72370;BME280;60343;-32.030;115.880;2022-08-23T02:38:21;103554.25;;;18.90;31.92
72370;BME280;60343;-32.030;115.880;2022-08-23T02:40:51;103549.47;;;18.83;32.17
72370;BME280;60343;-32.030;115.880;2022-08-23T02:43:25;103538.13;;;18.62;32.90
72370;BME280;60343;-32.030;115.880;2022-08-23T02:45:52;103548.78;;;18.81;32.69
72370;BME280;60343;-32.030;115.880;2022-08-23T02:48:20;103538.72;;;18.74;33.62
72370;BME280;60343;-32.030;115.880;2022-08-23T02:50:48;103536.50;;;18.69;33.52
72370;BME280;60343;-32.030;115.880;2022-08-23T02:53:16;103541.53;;;18.47;33.44
72370;BME280;60343;-32.030;115.880;2022-08-23T02:55:45;103532.72;;;18.44;32.72
72370;BME280;60343;-32.030;115.880;2022-08-23T02:58:14;103519.34;;;18.25;34.04
72370;BME280;60343;-32.030;115.880;2022-08-23T03:00:48;103515.81;;;18.51;34.05
72370;BME280;60343;-32.030;115.880;2022-08-23T03:03:17;103525.13;;;18.66;34.80
72370;BME280;60343;-32.030;115.880;2022-08-23T03:05:46;103522.09;;;18.77;32.55
72370;BME280;60343;-32.030;115.880;2022-08-23T03:08:14;103509.50;;;18.68;32.88
72370;BME280;60343;-32.030;115.880;2022-08-23T03:10:43;103511.53;;;18.66;34.04
72370;BME280;60343;-32.030;115.880;2022-08-23T03:13:11;103515.78;;;18.68;33.30
72370;BME280;60343;-32.030;115.880;2022-08-23T03:15:46;103511.38;;;18.67;33.90
72370;BME280;60343;-32.030;115.880;2022-08-23T03:18:14;103495.94;;;18.68;33.16
72370;BME280;60343;-32.030;115.880;2022-08-23T03:20:42;103497.75;;;18.59;33.05
72370;BME280;60343;-32.030;115.880;2022-08-23T03:23:10;103493.91;;;18.96;33.77
72370;BME280;60343;-32.030;115.880;2022-08-23T03:25:38;103483.34;;;18.93;33.00
72370;BME280;60343;-32.030;115.880;2022-08-23T03:28:10;103473.38;;;19.01;33.02
72370;BME280;60343;-32.030;115.880;2022-08-23T03:30:38;103475.72;;;19.38;32.29
72370;BME280;60343;-32.030;115.880;2022-08-23T03:33:11;103481.91;;;19.48;32.15
72370;BME280;60343;-32.030;115.880;2022-08-23T03:35:39;103469.88;;;19.51;31.82
72370;BME280;60343;-32.030;115.880;2022-08-23T03:38:07;103449.34;;;19.56;32.26
72370;BME280;60343;-32.030;115.880;2022-08-23T03:40:35;103442.56;;;19.77;31.42
72370;BME280;60343;-32.030;115.880;2022-08-23T03:43:03;103442.03;;;19.73;31.81
72370;BME280;60343;-32.030;115.880;2022-08-23T03:45:32;103437.94;;;19.77;33.07
72370;BME280;60343;-32.030;115.880;2022-08-23T03:47:59;103435.41;;;19.67;33.05
72370;BME280;60343;-32.030;115.880;2022-08-23T03:50:33;103429.97;;;19.84;32.83
72370;BME280;60343;-32.030;115.880;2022-08-23T03:53:03;103432.19;;;19.88;33.46
72370;BME280;60343;-32.030;115.880;2022-08-23T03:55:30;103422.66;;;19.92;33.16
72370;BME280;60343;-32.030;115.880;2022-08-23T03:57:58;103420.47;;;19.88;32.67
72370;BME280;60343;-32.030;115.880;2022-08-23T04:00:26;103407.06;;;19.86;32.70
72370;BME280;60343;-32.030;115.880;2022-08-23T04:02:54;103408.75;;;19.71;32.35
72370;BME280;60343;-32.030;115.880;2022-08-23T04:05:22;103400.88;;;19.36;33.39
72370;BME280;60343;-32.030;115.880;2022-08-23T04:07:55;103400.00;;;19.35;34.01
72370;BME280;60343;-32.030;115.880;2022-08-23T04:10:22;103380.81;;;19.20;35.10
72370;BME280;60343;-32.030;115.880;2022-08-23T04:12:50;103381.66;;;19.29;34.77
72370;BME280;60343;-32.030;115.880;2022-08-23T04:15:18;103381.91;;;19.02;34.00
72370;BME280;60343;-32.030;115.880;2022-08-23T04:17:45;103378.22;;;19.11;34.99
72370;BME280;60343;-32.030;115.880;2022-08-23T04:20:15;103381.97;;;19.10;34.98
72370;BME280;60343;-32.030;115.880;2022-08-23T04:22:43;103374.16;;;19.15;35.69
72370;BME280;60343;-32.030;115.880;2022-08-23T04:25:16;103365.31;;;19.05;34.60
72370;BME280;60343;-32.030;115.880;2022-08-23T04:27:44;103360.28;;;19.26;34.04
72370;BME280;60343;-32.030;115.880;2022-08-23T04:30:13;103353.94;;;19.09;34.89
72370;BME280;60343;-32.030;115.880;2022-08-23T04:32:40;103354.44;;;19.05;33.70
72370;BME280;60343;-32.030;115.880;2022-08-23T04:35:08;103331.47;;;18.83;34.21
72370;BME280;60343;-32.030;115.880;2022-08-23T04:37:36;103332.13;;;18.69;34.68
72370;BME280;60343;-32.030;115.880;2022-08-23T04:40:04;103326.53;;;18.70;35.25
72370;BME280;60343;-32.030;115.880;2022-08-23T04:42:37;103311.66;;;18.49;35.92
72370;BME280;60343;-32.030;115.880;2022-08-23T04:45:06;103310.63;;;18.92;37.70
72370;BME280;60343;-32.030;115.880;2022-08-23T04:47:34;103306.28;;;19.15;34.29
72370;BME280;60343;-32.030;115.880;2022-08-23T04:50:01;103304.06;;;19.10;33.86
72370;BME280;60343;-32.030;115.880;2022-08-23T04:52:30;103287.59;;;18.96;34.69
72370;BME280;60343;-32.030;115.880;2022-08-23T04:54:58;103284.69;;;18.97;33.88
72370;BME280;60343;-32.030;115.880;2022-08-23T04:57:25;103276.00;;;18.77;35.10
72370;BME280;60343;-32.030;115.880;2022-08-23T05:00:00;103275.28;;;18.59;35.82
72370;BME280;60343;-32.030;115.880;2022-08-23T05:02:28;103261.81;;;18.50;35.89
72370;BME280;60343;-32.030;115.880;2022-08-23T05:04:55;103265.97;;;18.28;35.72
72370;BME280;60343;-32.030;115.880;2022-08-23T05:07:27;103252.66;;;18.09;37.05
72370;BME280;60343;-32.030;115.880;2022-08-23T05:09:54;103238.84;;;18.28;36.28
72370;BME280;60343;-32.030;115.880;2022-08-23T05:12:22;103244.34;;;18.44;35.57
72370;BME280;60343;-32.030;115.880;2022-08-23T05:14:58;103248.06;;;18.51;35.40
72370;BME280;60343;-32.030;115.880;2022-08-23T05:17:26;103237.69;;;18.80;35.47
72370;BME280;60343;-32.030;115.880;2022-08-23T05:19:54;103243.81;;;18.99;35.52
72370;BME280;60343;-32.030;115.880;2022-08-23T05:22:22;103231.22;;;18.73;35.88
72370;BME280;60343;-32.030;115.880;2022-08-23T05:24:52;103232.22;;;18.72;36.24
72370;BME280;60343;-32.030;115.880;2022-08-23T05:27:20;103218.69;;;18.80;36.65
72370;BME280;60343;-32.030;115.880;2022-08-23T05:29:47;103218.00;;;19.27;36.19
72370;BME280;60343;-32.030;115.880;2022-08-23T05:32:21;103214.63;;;19.49;35.64
72370;BME280;60343;-32.030;115.880;2022-08-23T05:34:49;103211.88;;;19.33;34.58
72370;BME280;60343;-32.030;115.880;2022-08-23T05:37:17;103200.03;;;19.18;35.73
72370;BME280;60343;-32.030;115.880;2022-08-23T05:39:45;103200.72;;;19.20;36.01
72370;BME280;60343;-32.030;115.880;2022-08-23T05:42:14;103203.06;;;19.23;34.68
72370;BME280;60343;-32.030;115.880;2022-08-23T05:44:42;103194.72;;;19.57;35.29
72370;BME280;60343;-32.030;115.880;2022-08-23T05:47:12;103190.66;;;20.08;34.74
72370;BME280;60343;-32.030;115.880;2022-08-23T05:49:47;103181.50;;;20.63;33.23
72370;BME280;60343;-32.030;115.880;2022-08-23T05:52:14;103180.78;;;21.14;32.05
72370;BME280;60343;-32.030;115.880;2022-08-23T05:54:42;103179.34;;;21.41;32.19
72370;BME280;60343;-32.030;115.880;2022-08-23T05:57:10;103192.25;;;21.62;31.95
72370;BME280;60343;-32.030;115.880;2022-08-23T05:59:37;103192.03;;;21.63;31.28
72370;BME280;60343;-32.030;115.880;2022-08-23T06:02:05;103184.38;;;20.92;32.66
72370;BME280;60343;-32.030;115.880;2022-08-23T06:04:33;103194.56;;;20.44;33.23
72370;BME280;60343;-32.030;115.880;2022-08-23T06:07:06;103182.78;;;20.21;33.94
72370;BME280;60343;-32.030;115.880;2022-08-23T06:09:34;103176.66;;;20.19;34.11
72370;BME280;60343;-32.030;115.880;2022-08-23T06:12:05;103176.72;;;20.11;33.96
72370;BME280;60343;-32.030;115.880;2022-08-23T06:14:34;103166.97;;;19.86;35.50
72370;BME280;60343;-32.030;115.880;2022-08-23T06:17:01;103170.03;;;19.83;34.19
72370;BME280;60343;-32.030;115.880;2022-08-23T06:19:29;103171.44;;;19.62;35.39
72370;BME280;60343;-32.030;115.880;2022-08-23T06:21:58;103165.16;;;19.62;36.27
72370;BME280;60343;-32.030;115.880;2022-08-23T06:24:31;103149.59;;;19.87;34.76
72370;BME280;60343;-32.030;115.880;2022-08-23T06:26:59;103151.34;;;19.80;35.05
72370;BME280;60343;-32.030;115.880;2022-08-23T06:29:27;103137.81;;;19.63;34.44
72370;BME280;60343;-32.030;115.880;2022-08-23T06:31:55;103135.59;;;19.67;35.35
72370;BME280;60343;-32.030;115.880;2022-08-23T06:34:24;103129.03;;;19.92;35.56
72370;BME280;60343;-32.030;115.880;2022-08-23T06:36:55;103120.84;;;20.00;34.51
72370;BME280;60343;-32.030;115.880;2022-08-23T06:39:30;103129.16;;;19.99;34.84
72370;BME280;60343;-32.030;115.880;2022-08-23T06:42:01;103125.34;;;20.16;35.13
72370;BME280;60343;-32.030;115.880;2022-08-23T06:45:34;103124.97;;;19.88;34.70
72370;BME280;60343;-32.030;115.880;2022-08-23T06:47:45;103132.56;;;20.01;35.05
72370;BME280;60343;-32.030;115.880;2022-08-23T06:50:13;103129.47;;;20.04;36.14
72370;BME280;60343;-32.030;115.880;2022-08-23T06:52:40;103130.88;;;20.00;35.52
72370;BME280;60343;-32.030;115.880;2022-08-23T06:55:15;103124.25;;;20.33;36.84
72370;BME280;60343;-32.030;115.880;2022-08-23T06:57:43;103122.50;;;20.40;36.09
72370;BME280;60343;-32.030;115.880;2022-08-23T07:00:12;103120.00;;;20.23;35.57
72370;BME280;60343;-32.030;115.880;2022-08-23T07:02:39;103116.88;;;20.11;35.36
72370;BME280;60343;-32.030;115.880;2022-08-23T07:05:08;103110.38;;;20.12;34.95
72370;BME280;60343;-32.030;115.880;2022-08-23T07:07:36;103111.38;;;19.88;35.76
72370;BME280;60343;-32.030;115.880;2022-08-23T07:10:05;103111.44;;;20.42;35.72
72370;BME280;60343;-32.030;115.880;2022-08-23T07:12:40;103103.22;;;20.87;35.22
72370;BME280;60343;-32.030;115.880;2022-08-23T07:15:10;103109.28;;;20.75;35.06
72370;BME280;60343;-32.030;115.880;2022-08-23T07:17:38;103109.13;;;20.23;36.08
72370;BME280;60343;-32.030;115.880;2022-08-23T07:20:06;103112.38;;;19.95;36.52
72370;BME280;60343;-32.030;115.880;2022-08-23T07:22:34;103111.31;;;19.65;37.08
72370;BME280;60343;-32.030;115.880;2022-08-23T07:25:02;103108.09;;;19.62;37.71
72370;BME280;60343;-32.030;115.880;2022-08-23T07:27:30;103098.28;;;19.92;36.67
72370;BME280;60343;-32.030;115.880;2022-08-23T07:30:05;103103.59;;;20.47;36.14
72370;BME280;60343;-32.030;115.880;2022-08-23T07:32:33;103087.47;;;20.60;35.75
72370;BME280;60343;-32.030;115.880;2022-08-23T07:35:00;103086.06;;;20.64;35.45
72370;BME280;60343;-32.030;115.880;2022-08-23T07:37:28;103078.03;;;20.48;36.38
72370;BME280;60343;-32.030;115.880;2022-08-23T07:39:56;103076.16;;;20.48;35.20
72370;BME280;60343;-32.030;115.880;2022-08-23T07:42:23;103071.91;;;20.23;35.56
72370;BME280;60343;-32.030;115.880;2022-08-23T07:44:52;103080.19;;;20.30;35.93
72370;BME280;60343;-32.030;115.880;2022-08-23T07:47:25;103090.94;;;20.00;36.27
72370;BME280;60343;-32.030;115.880;2022-08-23T07:49:52;103096.69;;;20.05;36.81
72370;BME280;60343;-32.030;115.880;2022-08-23T07:52:20;103097.00;;;20.10;36.85
72370;BME280;60343;-32.030;115.880;2022-08-23T07:54:48;103089.28;;;19.91;36.64
72370;BME280;60343;-32.030;115.880;2022-08-23T07:57:16;103079.91;;;19.94;36.88
72370;BME280;60343;-32.030;115.880;2022-08-23T07:59:44;103079.34;;;20.06;37.23
72370;BME280;60343;-32.030;115.880;2022-08-23T08:02:11;103079.03;;;20.24;37.20
72370;BME280;60343;-32.030;115.880;2022-08-23T08:04:44;103092.09;;;20.29;36.94
72370;BME280;60343;-32.030;115.880;2022-08-23T08:07:12;103093.31;;;20.26;37.38
72370;BME280;60343;-32.030;115.880;2022-08-23T08:09:40;103080.03;;;20.54;36.37
72370;BME280;60343;-32.030;115.880;2022-08-23T08:12:08;103092.38;;;20.65;36.50
72370;BME280;60343;-32.030;115.880;2022-08-23T08:14:35;103096.06;;;20.72;35.88
72370;BME280;60343;-32.030;115.880;2022-08-23T08:17:03;103094.88;;;20.89;35.73
72370;BME280;60343;-32.030;115.880;2022-08-23T08:19:31;103091.28;;;21.26;35.31
72370;BME280;60343;-32.030;115.880;2022-08-23T08:22:04;103094.00;;;21.40;34.77
72370;BME280;60343;-32.030;115.880;2022-08-23T08:24:32;103100.78;;;21.45;34.91
72370;BME280;60343;-32.030;115.880;2022-08-23T08:27:00;103099.75;;;21.31;35.48
72370;BME280;60343;-32.030;115.880;2022-08-23T08:29:27;103109.97;;;21.29;34.93
72370;BME280;60343;-32.030;115.880;2022-08-23T08:31:55;103105.72;;;21.12;35.48
72370;BME280;60343;-32.030;115.880;2022-08-23T08:34:23;103104.34;;;20.55;36.95
72370;BME280;60343;-32.030;115.880;2022-08-23T08:36:54;103119.63;;;20.03;37.50
72370;BME280;60343;-32.030;115.880;2022-08-23T08:39:30;103111.22;;;19.90;38.09
72370;BME280;60343;-32.030;115.880;2022-08-23T08:42:07;103113.03;;;19.66;38.68
72370;BME280;60343;-32.030;115.880;2022-08-23T08:44:41;103115.19;;;19.08;39.60
72370;BME280;60343;-32.030;115.880;2022-08-23T08:47:16;103113.69;;;18.81;40.02
72370;BME280;60343;-32.030;115.880;2022-08-23T08:50:02;103111.13;;;18.71;40.44
72370;BME280;60343;-32.030;115.880;2022-08-23T08:52:36;103114.19;;;18.60;40.87
72370;BME280;60343;-32.030;115.880;2022-08-23T08:55:13;103122.25;;;18.36;41.60
72370;BME280;60343;-32.030;115.880;2022-08-23T08:57:43;103123.34;;;18.83;40.92
72370;BME280;60343;-32.030;115.880;2022-08-23T09:00:13;103119.75;;;19.07;40.02
72370;BME280;60343;-32.030;115.880;2022-08-23T09:02:43;103126.91;;;19.00;40.47
72370;BME280;60343;-32.030;115.880;2022-08-23T09:05:13;103118.91;;;18.50;41.96
72370;BME280;60343;-32.030;115.880;2022-08-23T09:07:49;103132.34;;;18.01;42.89
72370;BME280;60343;-32.030;115.880;2022-08-23T09:10:43;103141.84;;;17.64;43.35
72370;BME280;60343;-32.030;115.880;2022-08-23T09:13:21;103144.31;;;17.31;43.91
72370;BME280;60343;-32.030;115.880;2022-08-23T09:16:01;103151.16;;;16.92;45.01
72370;BME280;60343;-32.030;115.880;2022-08-23T09:18:33;103144.63;;;16.59;46.44
72370;BME280;60343;-32.030;115.880;2022-08-23T09:21:02;103153.28;;;16.35;47.60
72370;BME280;60343;-32.030;115.880;2022-08-23T09:23:34;103146.28;;;16.24;47.62
72370;BME280;60343;-32.030;115.880;2022-08-23T09:26:24;103151.16;;;16.11;47.97
72370;BME280;60343;-32.030;115.880;2022-08-23T09:28:55;103150.97;;;15.95;48.66
72370;BME280;60343;-32.030;115.880;2022-08-23T09:31:37;103152.78;;;15.77;48.95
72370;BME280;60343;-32.030;115.880;2022-08-23T09:34:06;103161.88;;;15.76;49.51
72370;BME280;60343;-32.030;115.880;2022-08-23T09:36:35;103167.88;;;15.70;49.50
72370;BME280;60343;-32.030;115.880;2022-08-23T09:39:07;103167.63;;;15.63;49.89
72370;BME280;60343;-32.030;115.880;2022-08-23T09:41:41;103168.22;;;15.48;50.69
72370;BME280;60343;-32.030;115.880;2022-08-23T09:44:11;103170.78;;;15.39;51.09
72370;BME280;60343;-32.030;115.880;2022-08-23T09:46:40;103163.41;;;15.32;51.40
72370;BME280;60343;-32.030;115.880;2022-08-23T09:49:22;103171.22;;;15.25;51.97
72370;BME280;60343;-32.030;115.880;2022-08-23T09:51:51;103178.66;;;15.23;51.87
72370;BME280;60343;-32.030;115.880;2022-08-23T09:54:20;103185.16;;;15.21;51.90
72370;BME280;60343;-32.030;115.880;2022-08-23T09:56:58;103177.38;;;15.18;52.45
72370;BME280;60343;-32.030;115.880;2022-08-23T09:59:36;103183.34;;;15.02;52.86
72370;BME280;60343;-32.030;115.880;2022-08-23T10:02:12;103188.47;;;14.86;53.71
72370;BME280;60343;-32.030;115.880;2022-08-23T10:04:44;103185.91;;;14.75;53.80
72370;BME280;60343;-32.030;115.880;2022-08-23T10:07:25;103181.66;;;14.63;54.84
72370;BME280;60343;-32.030;115.880;2022-08-23T10:09:53;103177.81;;;14.75;54.24
72370;BME280;60343;-32.030;115.880;2022-08-23T10:12:28;103184.19;;;14.74;54.68
72370;BME280;60343;-32.030;115.880;2022-08-23T10:15:04;103191.28;;;14.55;55.19
72370;BME280;60343;-32.030;115.880;2022-08-23T10:17:37;103194.91;;;14.35;56.12
72370;BME280;60343;-32.030;115.880;2022-08-23T10:20:16;103198.78;;;14.42;55.70
72370;BME280;60343;-32.030;115.880;2022-08-23T10:22:54;103205.59;;;14.37;56.24
72370;BME280;60343;-32.030;115.880;2022-08-23T10:25:32;103218.94;;;14.38;56.11
72370;BME280;60343;-32.030;115.880;2022-08-23T10:28:17;103207.34;;;14.17;56.48
72370;BME280;60343;-32.030;115.880;2022-08-23T10:30:58;103219.50;;;14.02;57.27
72370;BME280;60343;-32.030;115.880;2022-08-23T10:33:36;103225.56;;;14.04;57.07
72370;BME280;60343;-32.030;115.880;2022-08-23T10:36:11;103222.75;;;14.05;56.98
72370;BME280;60343;-32.030;115.880;2022-08-23T10:38:44;103222.03;;;14.03;57.58
72370;BME280;60343;-32.030;115.880;2022-08-23T10:44:22;103226.19;;;14.47;55.57
72370;BME280;60343;-32.030;115.880;2022-08-23T10:47:09;103219.94;;;14.56;55.42
72370;BME280;60343;-32.030;115.880;2022-08-23T10:49:40;103229.31;;;14.52;55.46
72370;BME280;60343;-32.030;115.880;2022-08-23T10:52:11;103244.31;;;14.45;56.03
72370;BME280;60343;-32.030;115.880;2022-08-23T10:54:42;103234.38;;;14.36;56.08
72370;BME280;60343;-32.030;115.880;2022-08-23T10:57:13;103243.88;;;14.40;56.34
72370;BME280;60343;-32.030;115.880;2022-08-23T10:59:48;103237.16;;;14.35;56.03
72370;BME280;60343;-32.030;115.880;2022-08-23T11:02:23;103240.03;;;14.33;56.27
72370;BME280;60343;-32.030;115.880;2022-08-23T11:05:00;103249.78;;;14.34;56.55
72370;BME280;60343;-32.030;115.880;2022-08-23T11:07:30;103244.13;;;14.28;56.63
72370;BME280;60343;-32.030;115.880;2022-08-23T11:10:09;103255.34;;;14.33;56.39
72370;BME280;60343;-32.030;115.880;2022-08-23T11:12:52;103243.38;;;14.26;56.60
72370;BME280;60343;-32.030;115.880;2022-08-23T11:15:36;103240.56;;;14.27;56.73
72370;BME280;60343;-32.030;115.880;2022-08-23T11:18:06;103234.63;;;14.33;56.67
72370;BME280;60343;-32.030;115.880;2022-08-23T11:20:58;103232.63;;;14.35;56.94
72370;BME280;60343;-32.030;115.880;2022-08-23T11:23:44;103231.06;;;14.23;56.95
72370;BME280;60343;-32.030;115.880;2022-08-23T11:29:34;103229.59;;;14.19;57.26
72370;BME280;60343;-32.030;115.880;2022-08-23T11:32:20;103227.47;;;14.13;57.78
72370;BME280;60343;-32.030;115.880;2022-08-23T11:34:53;103229.16;;;14.14;57.96
72370;BME280;60343;-32.030;115.880;2022-08-23T11:37:49;103230.72;;;14.07;58.07
72370;BME280;60343;-32.030;115.880;2022-08-23T11:43:28;103217.16;;;13.88;59.01
72370;BME280;60343;-32.030;115.880;2022-08-23T11:49:14;103230.97;;;13.73;59.56
72370;BME280;60343;-32.030;115.880;2022-08-23T11:52:02;103225.69;;;13.93;59.34
72370;BME280;60343;-32.030;115.880;2022-08-23T11:54:48;103226.97;;;13.98;59.21
72370;BME280;60343;-32.030;115.880;2022-08-23T11:57:34;103234.22;;;13.98;59.11
72370;BME280;60343;-32.030;115.880;2022-08-23T12:00:16;103223.47;;;14.07;58.91
72370;BME280;60343;-32.030;115.880;2022-08-23T12:03:02;103214.63;;;13.96;59.37
72370;BME280;60343;-32.030;115.880;2022-08-23T12:06:13;103212.31;;;13.82;59.54
72370;BME280;60343;-32.030;115.880;2022-08-23T12:09:01;103212.97;;;13.74;59.78
72370;BME280;60343;-32.030;115.880;2022-08-23T12:14:50;103216.28;;;13.78;59.90
72370;BME280;60343;-32.030;115.880;2022-08-23T12:20:25;103228.72;;;13.79;60.17
72370;BME280;60343;-32.030;115.880;2022-08-23T12:23:02;103222.75;;;13.75;59.74
72370;BME280;60343;-32.030;115.880;2022-08-23T12:25:30;103219.75;;;13.68;60.25
72370;BME280;60343;-32.030;115.880;2022-08-23T12:28:06;103215.63;;;13.64;60.65
72370;BME280;60343;-32.030;115.880;2022-08-23T12:30:41;103211.66;;;13.68;60.64
72370;BME280;60343;-32.030;115.880;2022-08-23T12:36:11;103227.50;;;13.62;60.84
72370;BME280;60343;-32.030;115.880;2022-08-23T12:38:55;103224.81;;;13.62;60.69
72370;BME280;60343;-32.030;115.880;2022-08-23T12:41:27;103231.47;;;13.58;60.85
72370;BME280;60343;-32.030;115.880;2022-08-23T12:44:02;103223.22;;;13.59;60.83
72370;BME280;60343;-32.030;115.880;2022-08-23T12:46:36;103220.28;;;13.62;60.25
72370;BME280;60343;-32.030;115.880;2022-08-23T12:49:05;103223.84;;;13.63;60.60
72370;BME280;60343;-32.030;115.880;2022-08-23T12:51:40;103211.78;;;13.57;60.93
72370;BME280;60343;-32.030;115.880;2022-08-23T12:54:23;103225.97;;;13.69;60.59
72370;BME280;60343;-32.030;115.880;2022-08-23T12:56:59;103236.75;;;13.69;60.70
72370;BME280;60343;-32.030;115.880;2022-08-23T12:59:38;103232.56;;;13.55;61.03
72370;BME280;60343;-32.030;115.880;2022-08-23T13:02:11;103235.78;;;13.49;61.01
72370;BME280;60343;-32.030;115.880;2022-08-23T13:04:40;103240.25;;;13.60;60.85